OCN2JV LGKO-EDDF
Flight info
| Callsign | OCN2JV |
|---|---|
| Flight time | 2h 47m |
| Altitude | 36000 |
| Route | LARKI UL609 MES DCT FSK UL608 DISOR DCT LONTA UL608 DOLEV DCT BEDOX DCT SIMBA DCT AKINI T161 DEBHI DEBHI1B |
| Aircraft | A320/M-SDE3FGHIRWY/LB1 |
Departure
| Time | 2026-05-06 10:16 |
|---|---|
| Airport | Kos International Airport "Ippokratis" (LGKO) |
Arrival
| Time | 2026-05-06 13:03 |
|---|---|
| Airport | Frankfurt Main Airport (EDDF) |
| Time | Latitude | Longitude | Altitude | Speed | Heading |
|---|---|---|---|---|---|
| 2026-05-06 09:33 | 36.79934 | 27.09089 | 414 ft | 0 kts | 57° |
| 2026-05-06 10:06 | 36.79930 | 27.09081 | 411 ft | 4 kts | 57° |
| 2026-05-06 10:06 | 36.79916 | 27.09053 | 409 ft | 4 kts | 58° |
| 2026-05-06 10:06 | 36.79904 | 27.09028 | 409 ft | 2 kts | 58° |
| 2026-05-06 10:06 | 36.79894 | 27.09001 | 408 ft | 4 kts | 95° |
| 2026-05-06 10:07 | 36.79903 | 27.08981 | 409 ft | 4 kts | 174° |
| 2026-05-06 10:07 | 36.79925 | 27.08980 | 411 ft | 1 kts | 178° |
| 2026-05-06 10:10 | 36.79906 | 27.08981 | 415 ft | 7 kts | 178° |
| 2026-05-06 10:11 | 36.79837 | 27.08984 | 417 ft | 10 kts | 178° |
| 2026-05-06 10:11 | 36.79776 | 27.08986 | 411 ft | 8 kts | 178° |
| 2026-05-06 10:11 | 36.79704 | 27.08989 | 419 ft | 14 kts | 178° |
| 2026-05-06 10:11 | 36.79608 | 27.09006 | 414 ft | 13 kts | 158° |
| 2026-05-06 10:12 | 36.79527 | 27.09062 | 411 ft | 13 kts | 148° |
| 2026-05-06 10:12 | 36.79448 | 27.09121 | 411 ft | 13 kts | 148° |
| 2026-05-06 10:12 | 36.79374 | 27.09179 | 414 ft | 13 kts | 148° |
| 2026-05-06 10:12 | 36.79291 | 27.09244 | 409 ft | 15 kts | 148° |
| 2026-05-06 10:13 | 36.79193 | 27.09321 | 405 ft | 19 kts | 148° |
| 2026-05-06 10:13 | 36.79082 | 27.09407 | 400 ft | 19 kts | 148° |
| 2026-05-06 10:13 | 36.78969 | 27.09496 | 397 ft | 19 kts | 148° |
| 2026-05-06 10:13 | 36.78864 | 27.09578 | 396 ft | 17 kts | 148° |
| 2026-05-06 10:14 | 36.78762 | 27.09658 | 393 ft | 17 kts | 148° |
| 2026-05-06 10:14 | 36.78668 | 27.09730 | 393 ft | 15 kts | 148° |
| 2026-05-06 10:14 | 36.78595 | 27.09824 | 389 ft | 16 kts | 130° |
| 2026-05-06 10:14 | 36.78560 | 27.09800 | 388 ft | 2 kts | 326° |
| 2026-05-06 10:15 | 36.78577 | 27.09789 | 389 ft | 11 kts | 333° |
| 2026-05-06 10:15 | 36.78861 | 27.09579 | 396 ft | 83 kts | 328° |
| 2026-05-06 10:15 | 36.79523 | 27.09065 | 411 ft | 138 kts | 328° |
| 2026-05-06 10:15 | 36.80389 | 27.08376 | 928 ft | 148 kts | 328° |
| 2026-05-06 10:16 | 36.81251 | 27.07685 | 1675 ft | 149 kts | 329° |
| 2026-05-06 10:16 | 36.82234 | 27.07095 | 2078 ft | 167 kts | 345° |
| 2026-05-06 10:16 | 36.83421 | 27.06700 | 2485 ft | 186 kts | 345° |
| 2026-05-06 10:16 | 36.84718 | 27.06235 | 2840 ft | 206 kts | 345° |
| 2026-05-06 10:17 | 36.86182 | 27.05700 | 3103 ft | 232 kts | 345° |
| 2026-05-06 10:17 | 36.87790 | 27.05089 | 3614 ft | 248 kts | 344° |
| 2026-05-06 10:17 | 36.89444 | 27.04430 | 4448 ft | 251 kts | 343° |
| 2026-05-06 10:17 | 36.91106 | 27.03756 | 5324 ft | 252 kts | 343° |
| 2026-05-06 10:18 | 36.92770 | 27.03075 | 6260 ft | 251 kts | 343° |
| 2026-05-06 10:18 | 36.93872 | 27.02624 | 6830 ft | 251 kts | 343° |
| 2026-05-06 10:18 | 36.95548 | 27.01939 | 7649 ft | 254 kts | 343° |
| 2026-05-06 10:18 | 36.97808 | 27.01016 | 8665 ft | 261 kts | 343° |
| 2026-05-06 10:19 | 36.99527 | 27.00205 | 9387 ft | 267 kts | 332° |
| 2026-05-06 10:19 | 37.01050 | 26.98819 | 10085 ft | 274 kts | 323° |
| 2026-05-06 10:19 | 37.02588 | 26.97297 | 10467 ft | 292 kts | 323° |
| 2026-05-06 10:19 | 37.03668 | 26.96224 | 10591 ft | 308 kts | 323° |
| 2026-05-06 10:20 | 37.05391 | 26.94508 | 11003 ft | 322 kts | 323° |
| 2026-05-06 10:20 | 37.07153 | 26.92741 | 11693 ft | 326 kts | 322° |
| 2026-05-06 10:20 | 37.08934 | 26.90951 | 12401 ft | 328 kts | 322° |
| 2026-05-06 10:20 | 37.10713 | 26.89164 | 13106 ft | 330 kts | 322° |
| 2026-05-06 10:21 | 37.12512 | 26.87356 | 13811 ft | 332 kts | 322° |
| 2026-05-06 10:21 | 37.14316 | 26.85541 | 14428 ft | 334 kts | 322° |
| 2026-05-06 10:21 | 37.16141 | 26.83705 | 15029 ft | 337 kts | 322° |
| 2026-05-06 10:21 | 37.17981 | 26.81855 | 15640 ft | 340 kts | 322° |
| 2026-05-06 10:22 | 37.19833 | 26.79994 | 16242 ft | 343 kts | 321° |
| 2026-05-06 10:22 | 37.21703 | 26.78119 | 16823 ft | 345 kts | 322° |
| 2026-05-06 10:22 | 37.23559 | 26.76258 | 17378 ft | 348 kts | 321° |
| 2026-05-06 10:22 | 37.25455 | 26.74354 | 17935 ft | 351 kts | 321° |
| 2026-05-06 10:23 | 37.27372 | 26.72422 | 18480 ft | 354 kts | 321° |
| 2026-05-06 10:23 | 37.29298 | 26.70478 | 18954 ft | 356 kts | 321° |
| 2026-05-06 10:23 | 37.31233 | 26.68525 | 19431 ft | 359 kts | 321° |
| 2026-05-06 10:23 | 37.33185 | 26.66566 | 19908 ft | 361 kts | 321° |
| 2026-05-06 10:24 | 37.35157 | 26.64597 | 20382 ft | 363 kts | 322° |
| 2026-05-06 10:24 | 37.37150 | 26.62614 | 20847 ft | 365 kts | 322° |
| 2026-05-06 10:24 | 37.39147 | 26.60629 | 21308 ft | 367 kts | 321° |
| 2026-05-06 10:24 | 37.41154 | 26.58633 | 21767 ft | 369 kts | 321° |
| 2026-05-06 10:25 | 37.43171 | 26.56623 | 22198 ft | 371 kts | 321° |
| 2026-05-06 10:25 | 37.45211 | 26.54587 | 22597 ft | 375 kts | 321° |
| 2026-05-06 10:25 | 37.47256 | 26.52543 | 23007 ft | 378 kts | 321° |
| 2026-05-06 10:25 | 37.49318 | 26.50483 | 23428 ft | 380 kts | 321° |
| 2026-05-06 10:26 | 37.51397 | 26.48408 | 23822 ft | 382 kts | 321° |
| 2026-05-06 10:26 | 37.53453 | 26.46347 | 24181 ft | 384 kts | 321° |
| 2026-05-06 10:26 | 37.55545 | 26.44247 | 24557 ft | 385 kts | 321° |
| 2026-05-06 10:26 | 37.57640 | 26.42141 | 24930 ft | 385 kts | 321° |
| 2026-05-06 10:27 | 37.59743 | 26.40029 | 25299 ft | 387 kts | 321° |
| 2026-05-06 10:27 | 37.61845 | 26.37914 | 25666 ft | 387 kts | 321° |
| 2026-05-06 10:27 | 37.63955 | 26.35788 | 26026 ft | 388 kts | 321° |
| 2026-05-06 10:27 | 37.66071 | 26.33658 | 26380 ft | 389 kts | 321° |
| 2026-05-06 10:28 | 37.68190 | 26.31523 | 26720 ft | 391 kts | 321° |
| 2026-05-06 10:28 | 37.70319 | 26.29380 | 27081 ft | 391 kts | 321° |
| 2026-05-06 10:28 | 37.72447 | 26.27236 | 27408 ft | 392 kts | 321° |
| 2026-05-06 10:28 | 37.74581 | 26.25080 | 27763 ft | 393 kts | 321° |
| 2026-05-06 10:29 | 37.76718 | 26.22915 | 28114 ft | 394 kts | 321° |
| 2026-05-06 10:29 | 37.78863 | 26.20740 | 28459 ft | 395 kts | 321° |
| 2026-05-06 10:29 | 37.81005 | 26.18569 | 28774 ft | 396 kts | 321° |
| 2026-05-06 10:29 | 37.83125 | 26.16415 | 29092 ft | 397 kts | 321° |
| 2026-05-06 10:30 | 37.85284 | 26.14226 | 29395 ft | 398 kts | 321° |
| 2026-05-06 10:30 | 37.87447 | 26.12033 | 29683 ft | 399 kts | 321° |
| 2026-05-06 10:30 | 37.89616 | 26.09832 | 29980 ft | 400 kts | 321° |
| 2026-05-06 10:30 | 37.91790 | 26.07622 | 30239 ft | 401 kts | 321° |
| 2026-05-06 10:31 | 37.93964 | 26.05409 | 30474 ft | 402 kts | 321° |
| 2026-05-06 10:31 | 37.96149 | 26.03182 | 30699 ft | 403 kts | 321° |
| 2026-05-06 10:31 | 37.98331 | 26.00962 | 31002 ft | 402 kts | 321° |
| 2026-05-06 10:31 | 38.00509 | 25.98744 | 31328 ft | 401 kts | 321° |
| 2026-05-06 10:32 | 38.02681 | 25.96532 | 31643 ft | 399 kts | 321° |
| 2026-05-06 10:32 | 38.04842 | 25.94329 | 31932 ft | 399 kts | 321° |
| 2026-05-06 10:32 | 38.07006 | 25.92119 | 32193 ft | 399 kts | 321° |
| 2026-05-06 10:32 | 38.09164 | 25.89913 | 32468 ft | 399 kts | 321° |
| 2026-05-06 10:33 | 38.11323 | 25.87703 | 32765 ft | 398 kts | 321° |
| 2026-05-06 10:33 | 38.13474 | 25.85500 | 33059 ft | 397 kts | 321° |
| 2026-05-06 10:33 | 38.15629 | 25.83291 | 33350 ft | 397 kts | 321° |
| 2026-05-06 10:33 | 38.17775 | 25.81088 | 33654 ft | 396 kts | 322° |
| 2026-05-06 10:34 | 38.19885 | 25.78920 | 33958 ft | 395 kts | 322° |
| 2026-05-06 10:34 | 38.22024 | 25.76721 | 34095 ft | 395 kts | 322° |
| 2026-05-06 10:34 | 38.26293 | 25.72333 | 34117 ft | 394 kts | 322° |
| 2026-05-06 10:35 | 38.28428 | 25.70136 | 34237 ft | 395 kts | 322° |
| 2026-05-06 10:35 | 38.30555 | 25.67941 | 34496 ft | 394 kts | 321° |
| 2026-05-06 10:35 | 38.32680 | 25.65743 | 34752 ft | 393 kts | 321° |
| 2026-05-06 10:35 | 38.34798 | 25.63553 | 34964 ft | 393 kts | 321° |
| 2026-05-06 10:36 | 38.36928 | 25.61350 | 35117 ft | 394 kts | 321° |
| 2026-05-06 10:36 | 38.39062 | 25.59147 | 35289 ft | 395 kts | 321° |
| 2026-05-06 10:36 | 38.41192 | 25.56946 | 35493 ft | 394 kts | 321° |
| 2026-05-06 10:36 | 38.43324 | 25.54739 | 35699 ft | 394 kts | 321° |
| 2026-05-06 10:37 | 38.45452 | 25.52534 | 35922 ft | 394 kts | 321° |
| 2026-05-06 10:37 | 38.47575 | 25.50336 | 36078 ft | 393 kts | 321° |
| 2026-05-06 10:37 | 38.51814 | 25.45934 | 36114 ft | 392 kts | 321° |
| 2026-05-06 10:38 | 38.56007 | 25.41572 | 36114 ft | 391 kts | 321° |
| 2026-05-06 10:38 | 38.60222 | 25.37178 | 36114 ft | 391 kts | 321° |
| 2026-05-06 10:39 | 38.64440 | 25.32774 | 36093 ft | 391 kts | 320° |
| 2026-05-06 10:39 | 38.68675 | 25.28355 | 36106 ft | 393 kts | 320° |
| 2026-05-06 10:40 | 38.72889 | 25.23951 | 36109 ft | 394 kts | 320° |
| 2026-05-06 10:40 | 38.77128 | 25.19513 | 36121 ft | 394 kts | 320° |
| 2026-05-06 10:41 | 38.81370 | 25.15056 | 36115 ft | 393 kts | 320° |
| 2026-05-06 10:41 | 38.85600 | 25.10600 | 36114 ft | 393 kts | 320° |
| 2026-05-06 10:42 | 38.89828 | 25.06144 | 36116 ft | 393 kts | 320° |
| 2026-05-06 10:42 | 38.94038 | 25.01713 | 36115 ft | 393 kts | 320° |
| 2026-05-06 10:43 | 38.98271 | 24.97241 | 36090 ft | 394 kts | 320° |
| 2026-05-06 10:44 | 39.04625 | 24.90516 | 36110 ft | 394 kts | 320° |
| 2026-05-06 10:44 | 39.08859 | 24.86021 | 36109 ft | 395 kts | 320° |
| 2026-05-06 10:45 | 39.13092 | 24.81518 | 36109 ft | 395 kts | 320° |
| 2026-05-06 10:45 | 39.17333 | 24.77008 | 36109 ft | 395 kts | 320° |
| 2026-05-06 10:46 | 39.21573 | 24.72498 | 36106 ft | 395 kts | 320° |
| 2026-05-06 10:46 | 39.25788 | 24.68000 | 36104 ft | 399 kts | 320° |
| 2026-05-06 10:47 | 39.30107 | 24.63371 | 36101 ft | 406 kts | 320° |
| 2026-05-06 10:47 | 39.34462 | 24.58702 | 36100 ft | 407 kts | 320° |
| 2026-05-06 10:48 | 39.38818 | 24.54026 | 36098 ft | 407 kts | 320° |
| 2026-05-06 10:48 | 39.43182 | 24.49344 | 36098 ft | 407 kts | 320° |
| 2026-05-06 10:49 | 39.47537 | 24.44654 | 36102 ft | 407 kts | 320° |
| 2026-05-06 10:49 | 39.51867 | 24.39988 | 36104 ft | 408 kts | 320° |
| 2026-05-06 10:50 | 39.56223 | 24.35281 | 36102 ft | 408 kts | 320° |
| 2026-05-06 10:50 | 39.60582 | 24.30565 | 36101 ft | 408 kts | 320° |
| 2026-05-06 10:51 | 39.64940 | 24.25840 | 36102 ft | 408 kts | 320° |
| 2026-05-06 10:51 | 39.69299 | 24.21110 | 36100 ft | 408 kts | 320° |
| 2026-05-06 10:52 | 39.73649 | 24.16377 | 36101 ft | 408 kts | 320° |
| 2026-05-06 10:52 | 39.77993 | 24.11640 | 36096 ft | 408 kts | 320° |
| 2026-05-06 10:53 | 39.82341 | 24.06896 | 36096 ft | 408 kts | 320° |
| 2026-05-06 10:53 | 39.86697 | 24.02137 | 36087 ft | 409 kts | 320° |
| 2026-05-06 10:54 | 39.91055 | 23.97368 | 36085 ft | 410 kts | 320° |
| 2026-05-06 10:54 | 39.95389 | 23.92616 | 36085 ft | 410 kts | 320° |
| 2026-05-06 10:55 | 39.99750 | 23.87817 | 36086 ft | 410 kts | 320° |
| 2026-05-06 10:55 | 40.04113 | 23.83014 | 36092 ft | 410 kts | 320° |
| 2026-05-06 10:56 | 40.08478 | 23.78206 | 36089 ft | 411 kts | 320° |
| 2026-05-06 10:56 | 40.12846 | 23.73388 | 36073 ft | 411 kts | 319° |
| 2026-05-06 10:57 | 40.17213 | 23.68558 | 36071 ft | 411 kts | 319° |
| 2026-05-06 10:57 | 40.21577 | 23.63716 | 36070 ft | 412 kts | 319° |
| 2026-05-06 10:58 | 40.25942 | 23.58861 | 36071 ft | 412 kts | 319° |
| 2026-05-06 10:58 | 40.30313 | 23.54004 | 36072 ft | 412 kts | 319° |
| 2026-05-06 10:59 | 40.34689 | 23.49128 | 36069 ft | 412 kts | 319° |
| 2026-05-06 10:59 | 40.39027 | 23.44284 | 36066 ft | 413 kts | 319° |
| 2026-05-06 11:00 | 40.43401 | 23.39397 | 36060 ft | 413 kts | 319° |
| 2026-05-06 11:00 | 40.47773 | 23.34500 | 36060 ft | 413 kts | 319° |
| 2026-05-06 11:01 | 40.52143 | 23.29599 | 36066 ft | 413 kts | 319° |
| 2026-05-06 11:01 | 40.56517 | 23.24679 | 36067 ft | 413 kts | 319° |
| 2026-05-06 11:02 | 40.60878 | 23.19767 | 36065 ft | 413 kts | 319° |
| 2026-05-06 11:02 | 40.65246 | 23.14834 | 36052 ft | 413 kts | 319° |
| 2026-05-06 11:03 | 40.69611 | 23.09901 | 36039 ft | 414 kts | 318° |
| 2026-05-06 11:03 | 40.73984 | 23.04959 | 36040 ft | 415 kts | 318° |
| 2026-05-06 11:04 | 40.78361 | 22.99992 | 36048 ft | 415 kts | 318° |
| 2026-05-06 11:04 | 40.82710 | 22.95039 | 36052 ft | 416 kts | 318° |
| 2026-05-06 11:05 | 40.87102 | 22.90046 | 36052 ft | 416 kts | 318° |
| 2026-05-06 11:05 | 40.91483 | 22.85050 | 36066 ft | 416 kts | 318° |
| 2026-05-06 11:06 | 40.95863 | 22.80042 | 36060 ft | 416 kts | 318° |
| 2026-05-06 11:06 | 41.00246 | 22.75029 | 36048 ft | 417 kts | 318° |
| 2026-05-06 11:07 | 41.04629 | 22.70003 | 36053 ft | 417 kts | 318° |
| 2026-05-06 11:07 | 41.09022 | 22.64964 | 36053 ft | 417 kts | 318° |
| 2026-05-06 11:08 | 41.13378 | 22.59953 | 36057 ft | 418 kts | 318° |
| 2026-05-06 11:08 | 41.17799 | 22.54865 | 36068 ft | 418 kts | 318° |
| 2026-05-06 11:09 | 41.22164 | 22.49851 | 36067 ft | 418 kts | 318° |
| 2026-05-06 11:09 | 41.26561 | 22.44786 | 36062 ft | 418 kts | 317° |
| 2026-05-06 11:10 | 41.30951 | 22.39715 | 36057 ft | 419 kts | 317° |
| 2026-05-06 11:10 | 41.35349 | 22.34631 | 36058 ft | 419 kts | 317° |
| 2026-05-06 11:11 | 41.39752 | 22.29543 | 36058 ft | 419 kts | 317° |
| 2026-05-06 11:11 | 41.43440 | 22.25269 | 36062 ft | 419 kts | 317° |
| 2026-05-06 11:12 | 41.47830 | 22.20153 | 36060 ft | 419 kts | 317° |
| 2026-05-06 11:12 | 41.52187 | 22.15064 | 36057 ft | 419 kts | 317° |
| 2026-05-06 11:13 | 41.56578 | 22.09938 | 36048 ft | 420 kts | 317° |
| 2026-05-06 11:13 | 41.60981 | 22.04795 | 36043 ft | 420 kts | 317° |
| 2026-05-06 11:14 | 41.65390 | 21.99640 | 36042 ft | 421 kts | 317° |
| 2026-05-06 11:14 | 41.69799 | 21.94468 | 36055 ft | 421 kts | 317° |
| 2026-05-06 11:15 | 41.74202 | 21.89289 | 36057 ft | 422 kts | 317° |
| 2026-05-06 11:15 | 41.78608 | 21.84106 | 36059 ft | 421 kts | 317° |
| 2026-05-06 11:16 | 41.83013 | 21.78912 | 36053 ft | 421 kts | 317° |
| 2026-05-06 11:16 | 41.87412 | 21.73707 | 36045 ft | 422 kts | 317° |
| 2026-05-06 11:17 | 41.91813 | 21.68488 | 36043 ft | 422 kts | 316° |
| 2026-05-06 11:17 | 41.96214 | 21.63260 | 36051 ft | 422 kts | 317° |
| 2026-05-06 11:18 | 42.00617 | 21.58025 | 36049 ft | 423 kts | 316° |
| 2026-05-06 11:18 | 42.05024 | 21.52782 | 36047 ft | 423 kts | 317° |
| 2026-05-06 11:19 | 42.09403 | 21.47561 | 36050 ft | 423 kts | 316° |
| 2026-05-06 11:19 | 42.13805 | 21.42291 | 36051 ft | 423 kts | 316° |
| 2026-05-06 11:20 | 42.17900 | 21.36629 | 36051 ft | 422 kts | 309° |
| 2026-05-06 11:20 | 42.21698 | 21.30598 | 36060 ft | 422 kts | 309° |
| 2026-05-06 11:21 | 42.25508 | 21.24561 | 36062 ft | 422 kts | 309° |
| 2026-05-06 11:21 | 42.29313 | 21.18521 | 36068 ft | 422 kts | 309° |
| 2026-05-06 11:22 | 42.33116 | 21.12462 | 36073 ft | 422 kts | 309° |
| 2026-05-06 11:22 | 42.36915 | 21.06402 | 36071 ft | 423 kts | 309° |
| 2026-05-06 11:23 | 42.40714 | 21.00318 | 36073 ft | 423 kts | 308° |
| 2026-05-06 11:23 | 42.44506 | 20.94231 | 36073 ft | 423 kts | 308° |
| 2026-05-06 11:24 | 42.48282 | 20.88166 | 36085 ft | 424 kts | 308° |
| 2026-05-06 11:24 | 42.52076 | 20.82054 | 36083 ft | 424 kts | 308° |
| 2026-05-06 11:25 | 42.55864 | 20.75932 | 36069 ft | 424 kts | 308° |
| 2026-05-06 11:25 | 42.59663 | 20.69793 | 36059 ft | 424 kts | 308° |
| 2026-05-06 11:26 | 42.63455 | 20.63650 | 36053 ft | 425 kts | 308° |
| 2026-05-06 11:26 | 42.67246 | 20.57497 | 36035 ft | 425 kts | 308° |
| 2026-05-06 11:27 | 42.71037 | 20.51335 | 36036 ft | 425 kts | 308° |
| 2026-05-06 11:27 | 42.74825 | 20.45167 | 36035 ft | 425 kts | 307° |
| 2026-05-06 11:28 | 42.78612 | 20.38973 | 36039 ft | 425 kts | 308° |
| 2026-05-06 11:28 | 42.82373 | 20.32813 | 36036 ft | 426 kts | 308° |
| 2026-05-06 11:29 | 42.86660 | 20.27198 | 36029 ft | 428 kts | 316° |
| 2026-05-06 11:29 | 42.91127 | 20.21819 | 36028 ft | 428 kts | 316° |
| 2026-05-06 11:30 | 42.95588 | 20.16424 | 36023 ft | 428 kts | 316° |
| 2026-05-06 11:30 | 43.00049 | 20.11028 | 36011 ft | 428 kts | 315° |
| 2026-05-06 11:31 | 43.04517 | 20.05619 | 36003 ft | 429 kts | 315° |
| 2026-05-06 11:31 | 43.08982 | 20.00191 | 35992 ft | 429 kts | 315° |
| 2026-05-06 11:32 | 43.13441 | 19.94751 | 35995 ft | 430 kts | 315° |
| 2026-05-06 11:32 | 43.17882 | 19.89344 | 35998 ft | 430 kts | 315° |
| 2026-05-06 11:33 | 43.22354 | 19.83893 | 36003 ft | 430 kts | 315° |
| 2026-05-06 11:33 | 43.26813 | 19.78425 | 36009 ft | 430 kts | 315° |
| 2026-05-06 11:34 | 43.31283 | 19.72943 | 36003 ft | 431 kts | 315° |
| 2026-05-06 11:34 | 43.35734 | 19.67474 | 35991 ft | 431 kts | 315° |
| 2026-05-06 11:35 | 43.40192 | 19.61967 | 35989 ft | 431 kts | 315° |
| 2026-05-06 11:35 | 43.44660 | 19.56445 | 35986 ft | 431 kts | 315° |
| 2026-05-06 11:36 | 43.49131 | 19.50917 | 35987 ft | 432 kts | 315° |
| 2026-05-06 11:36 | 43.53607 | 19.45370 | 35989 ft | 432 kts | 315° |
| 2026-05-06 11:37 | 43.58067 | 19.39808 | 35984 ft | 432 kts | 315° |
| 2026-05-06 11:37 | 43.62529 | 19.34237 | 35984 ft | 433 kts | 315° |
| 2026-05-06 11:38 | 43.66992 | 19.28670 | 35980 ft | 433 kts | 314° |
| 2026-05-06 11:38 | 43.71460 | 19.23083 | 35979 ft | 433 kts | 314° |
| 2026-05-06 11:39 | 43.75928 | 19.17484 | 35971 ft | 433 kts | 314° |
| 2026-05-06 11:39 | 43.80365 | 19.11905 | 35982 ft | 433 kts | 314° |
| 2026-05-06 11:40 | 43.84824 | 19.06295 | 35982 ft | 433 kts | 314° |
| 2026-05-06 11:40 | 43.89288 | 19.00664 | 35980 ft | 433 kts | 314° |
| 2026-05-06 11:41 | 43.93744 | 18.95028 | 35974 ft | 434 kts | 314° |
| 2026-05-06 11:41 | 43.98205 | 18.89389 | 35965 ft | 434 kts | 314° |
| 2026-05-06 11:42 | 44.02672 | 18.83730 | 35975 ft | 434 kts | 314° |
| 2026-05-06 11:42 | 44.07128 | 18.78046 | 35977 ft | 434 kts | 314° |
| 2026-05-06 11:43 | 44.11588 | 18.72349 | 35972 ft | 435 kts | 314° |
| 2026-05-06 11:43 | 44.16012 | 18.66690 | 35965 ft | 435 kts | 314° |
| 2026-05-06 11:44 | 44.22707 | 18.58132 | 35966 ft | 435 kts | 314° |
| 2026-05-06 11:44 | 44.27164 | 18.52405 | 35968 ft | 435 kts | 314° |
| 2026-05-06 11:45 | 44.31620 | 18.46673 | 35979 ft | 435 kts | 314° |
| 2026-05-06 11:45 | 44.36065 | 18.40940 | 35968 ft | 435 kts | 314° |
| 2026-05-06 11:46 | 44.40506 | 18.35195 | 35963 ft | 435 kts | 314° |
| 2026-05-06 11:46 | 44.44919 | 18.29475 | 35965 ft | 435 kts | 314° |
| 2026-05-06 11:47 | 44.49353 | 18.23712 | 35963 ft | 435 kts | 313° |
| 2026-05-06 11:47 | 44.53786 | 18.17938 | 35967 ft | 435 kts | 313° |
| 2026-05-06 11:48 | 44.58215 | 18.12159 | 35956 ft | 435 kts | 313° |
| 2026-05-06 11:48 | 44.62643 | 18.06383 | 35951 ft | 435 kts | 313° |
| 2026-05-06 11:49 | 44.67075 | 18.00579 | 35963 ft | 435 kts | 312° |
| 2026-05-06 11:49 | 44.71496 | 17.94775 | 35955 ft | 435 kts | 312° |
| 2026-05-06 11:50 | 44.75880 | 17.88997 | 35959 ft | 435 kts | 312° |
| 2026-05-06 11:50 | 44.80293 | 17.83177 | 35955 ft | 434 kts | 312° |
| 2026-05-06 11:51 | 44.84701 | 17.77353 | 35952 ft | 434 kts | 312° |
| 2026-05-06 11:51 | 44.89106 | 17.71522 | 35951 ft | 434 kts | 312° |
| 2026-05-06 11:52 | 44.93508 | 17.65685 | 35940 ft | 434 kts | 312° |
| 2026-05-06 11:52 | 44.97904 | 17.59844 | 35935 ft | 434 kts | 311° |
| 2026-05-06 11:53 | 45.02306 | 17.53986 | 35944 ft | 434 kts | 311° |
| 2026-05-06 11:53 | 45.06689 | 17.48124 | 35957 ft | 434 kts | 311° |
| 2026-05-06 11:54 | 45.11046 | 17.42278 | 35941 ft | 434 kts | 311° |
| 2026-05-06 11:54 | 45.15439 | 17.36370 | 35935 ft | 435 kts | 311° |
| 2026-05-06 11:55 | 45.19825 | 17.30466 | 35932 ft | 435 kts | 311° |
| 2026-05-06 11:55 | 45.24215 | 17.24549 | 35933 ft | 435 kts | 311° |
| 2026-05-06 11:56 | 45.28592 | 17.18641 | 35937 ft | 435 kts | 311° |
| 2026-05-06 11:56 | 45.32983 | 17.12697 | 35928 ft | 436 kts | 311° |
| 2026-05-06 11:57 | 45.37349 | 17.06785 | 35929 ft | 436 kts | 311° |
| 2026-05-06 11:57 | 45.41742 | 17.00822 | 35931 ft | 437 kts | 311° |
| 2026-05-06 11:58 | 45.46128 | 16.94826 | 35934 ft | 437 kts | 311° |
| 2026-05-06 11:58 | 45.50514 | 16.88820 | 35938 ft | 437 kts | 311° |
| 2026-05-06 11:59 | 45.54906 | 16.82815 | 35934 ft | 438 kts | 311° |
| 2026-05-06 11:59 | 45.59300 | 16.76791 | 35936 ft | 438 kts | 311° |
| 2026-05-06 12:00 | 45.62948 | 16.71768 | 35938 ft | 438 kts | 311° |
| 2026-05-06 12:00 | 45.67336 | 16.65715 | 35956 ft | 439 kts | 311° |
| 2026-05-06 12:01 | 45.71731 | 16.59653 | 35950 ft | 439 kts | 311° |
| 2026-05-06 12:01 | 45.76120 | 16.53580 | 35955 ft | 439 kts | 310° |
| 2026-05-06 12:02 | 45.80500 | 16.47476 | 35959 ft | 439 kts | 310° |
| 2026-05-06 12:02 | 45.84881 | 16.41367 | 35959 ft | 438 kts | 310° |
| 2026-05-06 12:03 | 45.89259 | 16.35284 | 35973 ft | 438 kts | 310° |
| 2026-05-06 12:03 | 45.93638 | 16.29179 | 35966 ft | 438 kts | 310° |
| 2026-05-06 12:04 | 45.97996 | 16.23057 | 35961 ft | 438 kts | 310° |
| 2026-05-06 12:04 | 46.02360 | 16.16925 | 35953 ft | 438 kts | 310° |
| 2026-05-06 12:05 | 46.06717 | 16.10795 | 35973 ft | 437 kts | 310° |
| 2026-05-06 12:05 | 46.11029 | 16.04705 | 35986 ft | 437 kts | 310° |
| 2026-05-06 12:06 | 46.15361 | 15.98579 | 35974 ft | 436 kts | 310° |
| 2026-05-06 12:06 | 46.19679 | 15.92463 | 35962 ft | 435 kts | 310° |
| 2026-05-06 12:07 | 46.23991 | 15.86339 | 35954 ft | 435 kts | 310° |
| 2026-05-06 12:07 | 46.28310 | 15.80218 | 35951 ft | 435 kts | 310° |
| 2026-05-06 12:08 | 46.32720 | 15.74213 | 35953 ft | 435 kts | 311° |
| 2026-05-06 12:08 | 46.37160 | 15.68255 | 35950 ft | 435 kts | 311° |
| 2026-05-06 12:09 | 46.41580 | 15.62270 | 35961 ft | 435 kts | 311° |
| 2026-05-06 12:09 | 46.45978 | 15.56252 | 35956 ft | 434 kts | 311° |
| 2026-05-06 12:10 | 46.50366 | 15.50223 | 35951 ft | 435 kts | 311° |
| 2026-05-06 12:10 | 46.54765 | 15.44176 | 35962 ft | 435 kts | 310° |
| 2026-05-06 12:11 | 46.59162 | 15.38104 | 35945 ft | 436 kts | 310° |
| 2026-05-06 12:11 | 46.63563 | 15.32015 | 35913 ft | 437 kts | 310° |
| 2026-05-06 12:12 | 46.67941 | 15.25959 | 35905 ft | 437 kts | 310° |
| 2026-05-06 12:12 | 46.72352 | 15.19854 | 35895 ft | 437 kts | 310° |
| 2026-05-06 12:13 | 46.76750 | 15.13738 | 35907 ft | 438 kts | 310° |
| 2026-05-06 12:13 | 46.81158 | 15.07589 | 35918 ft | 437 kts | 310° |
| 2026-05-06 12:14 | 46.85556 | 15.01452 | 35904 ft | 437 kts | 310° |
| 2026-05-06 12:14 | 46.89944 | 14.95311 | 35910 ft | 437 kts | 310° |
| 2026-05-06 12:15 | 46.94324 | 14.89156 | 35906 ft | 436 kts | 309° |
| 2026-05-06 12:15 | 46.98700 | 14.82987 | 35903 ft | 437 kts | 309° |
| 2026-05-06 12:16 | 47.03086 | 14.76810 | 35896 ft | 438 kts | 310° |
| 2026-05-06 12:16 | 47.07445 | 14.70649 | 35914 ft | 437 kts | 309° |
| 2026-05-06 12:17 | 47.11820 | 14.64441 | 35908 ft | 437 kts | 309° |
| 2026-05-06 12:17 | 47.16187 | 14.58231 | 35901 ft | 437 kts | 309° |
| 2026-05-06 12:18 | 47.20558 | 14.52013 | 35898 ft | 438 kts | 309° |
| 2026-05-06 12:18 | 47.24946 | 14.45744 | 35882 ft | 438 kts | 309° |
| 2026-05-06 12:19 | 47.29320 | 14.39479 | 35876 ft | 439 kts | 309° |
| 2026-05-06 12:19 | 47.33678 | 14.33242 | 35881 ft | 439 kts | 309° |
| 2026-05-06 12:20 | 47.38058 | 14.26941 | 35869 ft | 440 kts | 308° |
| 2026-05-06 12:20 | 47.42440 | 14.20604 | 35855 ft | 441 kts | 308° |
| 2026-05-06 12:21 | 47.46833 | 14.14250 | 35845 ft | 442 kts | 308° |
| 2026-05-06 12:21 | 47.51227 | 14.07885 | 35830 ft | 442 kts | 308° |
| 2026-05-06 12:22 | 47.55621 | 14.01515 | 35818 ft | 442 kts | 308° |
| 2026-05-06 12:22 | 47.59986 | 13.95159 | 35828 ft | 443 kts | 308° |
| 2026-05-06 12:23 | 47.64377 | 13.88749 | 35813 ft | 444 kts | 308° |
| 2026-05-06 12:23 | 47.68781 | 13.82306 | 35788 ft | 445 kts | 308° |
| 2026-05-06 12:24 | 47.73194 | 13.75829 | 35783 ft | 446 kts | 307° |
| 2026-05-06 12:24 | 47.77607 | 13.69339 | 35777 ft | 446 kts | 307° |
| 2026-05-06 12:25 | 47.82012 | 13.62814 | 35781 ft | 444 kts | 304° |
| 2026-05-06 12:25 | 47.85768 | 13.55658 | 35789 ft | 439 kts | 300° |
| 2026-05-06 12:26 | 47.89473 | 13.48408 | 35777 ft | 441 kts | 300° |
| 2026-05-06 12:26 | 47.93180 | 13.41114 | 35766 ft | 441 kts | 300° |
| 2026-05-06 12:27 | 47.96858 | 13.33852 | 35766 ft | 442 kts | 299° |
| 2026-05-06 12:27 | 48.00559 | 13.26538 | 35797 ft | 442 kts | 300° |
| 2026-05-06 12:28 | 48.04267 | 13.19195 | 35784 ft | 443 kts | 300° |
| 2026-05-06 12:28 | 48.07980 | 13.11827 | 35779 ft | 443 kts | 299° |
| 2026-05-06 12:29 | 48.11683 | 13.04454 | 35780 ft | 443 kts | 299° |
| 2026-05-06 12:29 | 48.15364 | 12.97097 | 35780 ft | 444 kts | 299° |
| 2026-05-06 12:30 | 48.19065 | 12.89691 | 35816 ft | 444 kts | 300° |
| 2026-05-06 12:30 | 48.22774 | 12.82281 | 35805 ft | 445 kts | 300° |
| 2026-05-06 12:31 | 48.26480 | 12.74853 | 35784 ft | 445 kts | 300° |
| 2026-05-06 12:31 | 48.30198 | 12.67398 | 35781 ft | 445 kts | 300° |
| 2026-05-06 12:32 | 48.33916 | 12.59942 | 35781 ft | 445 kts | 300° |
| 2026-05-06 12:32 | 48.37615 | 12.52471 | 35777 ft | 445 kts | 299° |
| 2026-05-06 12:33 | 48.41306 | 12.44986 | 35786 ft | 445 kts | 300° |
| 2026-05-06 12:33 | 48.45004 | 12.37481 | 35798 ft | 445 kts | 300° |
| 2026-05-06 12:34 | 48.48684 | 12.29989 | 35779 ft | 445 kts | 299° |
| 2026-05-06 12:34 | 48.52338 | 12.22537 | 35789 ft | 445 kts | 299° |
| 2026-05-06 12:35 | 48.56013 | 12.15014 | 35801 ft | 445 kts | 299° |
| 2026-05-06 12:35 | 48.59686 | 12.07458 | 35785 ft | 446 kts | 299° |
| 2026-05-06 12:36 | 48.63367 | 11.99892 | 35778 ft | 447 kts | 300° |
| 2026-05-06 12:36 | 48.67055 | 11.92328 | 35782 ft | 447 kts | 299° |
| 2026-05-06 12:37 | 48.70733 | 11.84734 | 35791 ft | 447 kts | 299° |
| 2026-05-06 12:37 | 48.74407 | 11.77118 | 35793 ft | 448 kts | 299° |
| 2026-05-06 12:38 | 48.78070 | 11.69452 | 35790 ft | 449 kts | 299° |
| 2026-05-06 12:38 | 48.81733 | 11.61769 | 35774 ft | 450 kts | 299° |
| 2026-05-06 12:39 | 48.85395 | 11.54130 | 35778 ft | 450 kts | 299° |
| 2026-05-06 12:39 | 48.87236 | 11.50276 | 35613 ft | 452 kts | 299° |
| 2026-05-06 12:39 | 48.89075 | 11.46406 | 35136 ft | 450 kts | 299° |
| 2026-05-06 12:40 | 48.90905 | 11.42546 | 34699 ft | 449 kts | 299° |
| 2026-05-06 12:40 | 48.92726 | 11.38694 | 34246 ft | 449 kts | 298° |
| 2026-05-06 12:40 | 48.94545 | 11.34840 | 33802 ft | 448 kts | 298° |
| 2026-05-06 12:40 | 48.96362 | 11.30988 | 33281 ft | 447 kts | 298° |
| 2026-05-06 12:41 | 48.98177 | 11.27139 | 32790 ft | 449 kts | 298° |
| 2026-05-06 12:41 | 49.00005 | 11.23261 | 32282 ft | 451 kts | 298° |
| 2026-05-06 12:41 | 49.01831 | 11.19380 | 31776 ft | 452 kts | 299° |
| 2026-05-06 12:41 | 49.03665 | 11.15484 | 31320 ft | 454 kts | 299° |
| 2026-05-06 12:42 | 49.05514 | 11.11557 | 30837 ft | 455 kts | 299° |
| 2026-05-06 12:42 | 49.07360 | 11.07627 | 30389 ft | 457 kts | 299° |
| 2026-05-06 12:42 | 49.09211 | 11.03677 | 29921 ft | 459 kts | 299° |
| 2026-05-06 12:42 | 49.11071 | 10.99696 | 29407 ft | 462 kts | 300° |
| 2026-05-06 12:43 | 49.12939 | 10.95693 | 28868 ft | 464 kts | 300° |
| 2026-05-06 12:43 | 49.14813 | 10.91672 | 28342 ft | 466 kts | 300° |
| 2026-05-06 12:43 | 49.16692 | 10.87634 | 27824 ft | 468 kts | 300° |
| 2026-05-06 12:43 | 49.18559 | 10.83616 | 27338 ft | 470 kts | 300° |
| 2026-05-06 12:44 | 49.20481 | 10.79479 | 26830 ft | 472 kts | 300° |
| 2026-05-06 12:44 | 49.22386 | 10.75378 | 26299 ft | 474 kts | 300° |
| 2026-05-06 12:44 | 49.24311 | 10.71271 | 25822 ft | 477 kts | 301° |
| 2026-05-06 12:44 | 49.26240 | 10.67218 | 25378 ft | 479 kts | 302° |
| 2026-05-06 12:45 | 49.28213 | 10.63107 | 24911 ft | 480 kts | 303° |
| 2026-05-06 12:45 | 49.30195 | 10.58983 | 24455 ft | 482 kts | 303° |
| 2026-05-06 12:45 | 49.34150 | 10.50709 | 23790 ft | 479 kts | 303° |
| 2026-05-06 12:46 | 49.36104 | 10.46578 | 23807 ft | 479 kts | 303° |
| 2026-05-06 12:46 | 49.38050 | 10.42419 | 23297 ft | 477 kts | 302° |
| 2026-05-06 12:46 | 49.39950 | 10.38278 | 22762 ft | 473 kts | 302° |
| 2026-05-06 12:46 | 49.41827 | 10.34136 | 22297 ft | 470 kts | 302° |
| 2026-05-06 12:47 | 49.43680 | 10.30028 | 21853 ft | 467 kts | 302° |
| 2026-05-06 12:47 | 49.45524 | 10.25940 | 21356 ft | 464 kts | 302° |
| 2026-05-06 12:47 | 49.47359 | 10.21876 | 20886 ft | 461 kts | 302° |
| 2026-05-06 12:47 | 49.49181 | 10.17851 | 20425 ft | 457 kts | 302° |
| 2026-05-06 12:48 | 49.50996 | 10.13847 | 19959 ft | 454 kts | 302° |
| 2026-05-06 12:48 | 49.52796 | 10.09871 | 19495 ft | 451 kts | 302° |
| 2026-05-06 12:48 | 49.54585 | 10.05915 | 19041 ft | 448 kts | 302° |
| 2026-05-06 12:48 | 49.56358 | 10.01986 | 18583 ft | 445 kts | 302° |
| 2026-05-06 12:49 | 49.57525 | 9.99393 | 18284 ft | 443 kts | 302° |
| 2026-05-06 12:49 | 49.59277 | 9.95495 | 17798 ft | 440 kts | 302° |
| 2026-05-06 12:49 | 49.61014 | 9.91627 | 17364 ft | 437 kts | 302° |
| 2026-05-06 12:49 | 49.62739 | 9.87783 | 16908 ft | 435 kts | 302° |
| 2026-05-06 12:50 | 49.64449 | 9.83970 | 16450 ft | 432 kts | 302° |
| 2026-05-06 12:50 | 49.66157 | 9.80171 | 16029 ft | 429 kts | 303° |
| 2026-05-06 12:50 | 49.68006 | 9.76559 | 15657 ft | 427 kts | 307° |
| 2026-05-06 12:50 | 49.69885 | 9.73040 | 14933 ft | 423 kts | 307° |
| 2026-05-06 12:51 | 49.71773 | 9.69572 | 14249 ft | 420 kts | 308° |
| 2026-05-06 12:51 | 49.73648 | 9.66155 | 13596 ft | 415 kts | 308° |
| 2026-05-06 12:51 | 49.75508 | 9.62763 | 12890 ft | 411 kts | 308° |
| 2026-05-06 12:51 | 49.77339 | 9.59409 | 12275 ft | 404 kts | 308° |
| 2026-05-06 12:52 | 49.79139 | 9.56093 | 11635 ft | 398 kts | 307° |
| 2026-05-06 12:52 | 49.80898 | 9.52834 | 11094 ft | 391 kts | 307° |
| 2026-05-06 12:52 | 49.82623 | 9.49627 | 10637 ft | 382 kts | 307° |
| 2026-05-06 12:52 | 49.84295 | 9.46514 | 10271 ft | 371 kts | 307° |
| 2026-05-06 12:53 | 49.85923 | 9.43480 | 9892 ft | 360 kts | 307° |
| 2026-05-06 12:53 | 49.87482 | 9.40570 | 9529 ft | 350 kts | 307° |
| 2026-05-06 12:53 | 49.89039 | 9.37658 | 9126 ft | 342 kts | 307° |
| 2026-05-06 12:53 | 49.90540 | 9.34852 | 8732 ft | 334 kts | 307° |
| 2026-05-06 12:54 | 49.91990 | 9.32141 | 8348 ft | 328 kts | 307° |
| 2026-05-06 12:54 | 49.93429 | 9.29445 | 7966 ft | 321 kts | 307° |
| 2026-05-06 12:54 | 49.94843 | 9.26795 | 7622 ft | 315 kts | 307° |
| 2026-05-06 12:54 | 49.96219 | 9.24213 | 7364 ft | 306 kts | 307° |
| 2026-05-06 12:55 | 49.97559 | 9.21696 | 7114 ft | 298 kts | 307° |
| 2026-05-06 12:55 | 49.98859 | 9.19251 | 6876 ft | 289 kts | 307° |
| 2026-05-06 12:55 | 50.00114 | 9.16887 | 6711 ft | 279 kts | 307° |
| 2026-05-06 12:55 | 50.01334 | 9.14585 | 6503 ft | 274 kts | 307° |
| 2026-05-06 12:56 | 50.02546 | 9.12296 | 6321 ft | 273 kts | 306° |
| 2026-05-06 12:56 | 50.03750 | 9.10021 | 6098 ft | 271 kts | 307° |
| 2026-05-06 12:56 | 50.04939 | 9.07773 | 5838 ft | 266 kts | 307° |
| 2026-05-06 12:56 | 50.06106 | 9.05573 | 5584 ft | 260 kts | 307° |
| 2026-05-06 12:57 | 50.07243 | 9.03426 | 5329 ft | 253 kts | 306° |
| 2026-05-06 12:57 | 50.08269 | 9.01247 | 5069 ft | 244 kts | 295° |
| 2026-05-06 12:57 | 50.08899 | 8.98852 | 4825 ft | 236 kts | 285° |
| 2026-05-06 12:57 | 50.09396 | 8.96439 | 4571 ft | 231 kts | 284° |
| 2026-05-06 12:58 | 50.09877 | 8.94075 | 4310 ft | 227 kts | 284° |
| 2026-05-06 12:58 | 50.10324 | 8.91771 | 4084 ft | 224 kts | 284° |
| 2026-05-06 12:58 | 50.10746 | 8.89487 | 3987 ft | 214 kts | 278° |
| 2026-05-06 12:58 | 50.10742 | 8.87278 | 3993 ft | 197 kts | 255° |
| 2026-05-06 12:59 | 50.10316 | 8.85301 | 3882 ft | 190 kts | 248° |
| 2026-05-06 12:59 | 50.09856 | 8.83363 | 3675 ft | 191 kts | 248° |
| 2026-05-06 12:59 | 50.09395 | 8.81413 | 3435 ft | 192 kts | 248° |
| 2026-05-06 12:59 | 50.08930 | 8.79444 | 3180 ft | 195 kts | 249° |
| 2026-05-06 13:00 | 50.08460 | 8.77452 | 2919 ft | 197 kts | 248° |
| 2026-05-06 13:00 | 50.07995 | 8.75477 | 2692 ft | 190 kts | 249° |
| 2026-05-06 13:00 | 50.07608 | 8.73562 | 2442 ft | 182 kts | 256° |
| 2026-05-06 13:00 | 50.07400 | 8.71668 | 2138 ft | 173 kts | 260° |
| 2026-05-06 13:01 | 50.07190 | 8.69899 | 1915 ft | 158 kts | 254° |
| 2026-05-06 13:01 | 50.06845 | 8.68343 | 1723 ft | 147 kts | 246° |
| 2026-05-06 13:01 | 50.06484 | 8.66906 | 1500 ft | 138 kts | 246° |
| 2026-05-06 13:01 | 50.06121 | 8.65486 | 1301 ft | 143 kts | 248° |
| 2026-05-06 13:02 | 50.05785 | 8.64013 | 1102 ft | 147 kts | 248° |
| 2026-05-06 13:02 | 50.05443 | 8.62557 | 880 ft | 144 kts | 248° |
| 2026-05-06 13:02 | 50.05083 | 8.61083 | 756 ft | 149 kts | 249° |
| 2026-05-06 13:02 | 50.04715 | 8.59534 | 560 ft | 152 kts | 248° |
| 2026-05-06 13:03 | 50.04359 | 8.58059 | 370 ft | 140 kts | 247° |
| 2026-05-06 13:03 | 50.04061 | 8.56811 | 360 ft | 98 kts | 250° |
| 2026-05-06 13:03 | 50.03946 | 8.56318 | 355 ft | 28 kts | 249° |
| 2026-05-06 13:03 | 50.03887 | 8.56024 | 353 ft | 29 kts | 263° |
| 2026-05-06 13:04 | 50.03900 | 8.55744 | 352 ft | 22 kts | 284° |
| 2026-05-06 13:04 | 50.03967 | 8.55646 | 350 ft | 13 kts | 29° |
| 2026-05-06 13:04 | 50.04003 | 8.55759 | 354 ft | 11 kts | 69° |
| 2026-05-06 13:04 | 50.04034 | 8.55889 | 353 ft | 17 kts | 70° |
| 2026-05-06 13:05 | 50.04090 | 8.56124 | 358 ft | 26 kts | 69° |
| 2026-05-06 13:05 | 50.04155 | 8.56396 | 360 ft | 27 kts | 70° |
| 2026-05-06 13:05 | 50.04219 | 8.56663 | 364 ft | 26 kts | 70° |
| 2026-05-06 13:05 | 50.04281 | 8.56920 | 361 ft | 25 kts | 69° |
| 2026-05-06 13:06 | 50.04338 | 8.57162 | 361 ft | 22 kts | 71° |
| 2026-05-06 13:06 | 50.04391 | 8.57381 | 362 ft | 21 kts | 69° |
| 2026-05-06 13:06 | 50.04439 | 8.57579 | 365 ft | 18 kts | 69° |
| 2026-05-06 13:06 | 50.04477 | 8.57743 | 366 ft | 15 kts | 70° |
| 2026-05-06 13:07 | 50.04514 | 8.57903 | 368 ft | 16 kts | 70° |
| 2026-05-06 13:07 | 50.04584 | 8.58027 | 362 ft | 18 kts | 7° |
| 2026-05-06 13:07 | 50.04711 | 8.57959 | 361 ft | 21 kts | 339° |
| 2026-05-06 13:07 | 50.04839 | 8.57854 | 360 ft | 21 kts | 308° |
| 2026-05-06 13:08 | 50.04901 | 8.57645 | 356 ft | 20 kts | 294° |
| 2026-05-06 13:08 | 50.04941 | 8.57507 | 360 ft | 9 kts | 295° |
| 2026-05-06 13:08 | 50.04959 | 8.57445 | 361 ft | 6 kts | 295° |
| 2026-05-06 13:08 | 50.04991 | 8.57405 | 358 ft | 3 kts | 339° |
| 2026-05-06 13:09 | 50.05000 | 8.57406 | 357 ft | 2 kts | 28° |
| 2026-05-06 13:09 | 50.05004 | 8.57427 | 363 ft | 1 kts | 75° |
| 2026-05-06 13:09 | 50.05004 | 8.57428 | 363 ft | 0 kts | 75° |